Time;durP1;ratioP1;P1;durP2;ratioP2;P2;SDS_P1;SDS_P2;PMS_P1;PMS_P2;Temp;Humidity;BMP_temperature;BMP_pressure;BME280_temperature;BME280_humidity;BME280_pressure;Samples;Min_cycle;Max_cycle;Signal;HPM_P1;HPM_P2
2021/10/16 00:00:33;;;;;;;22.35;5.57;;;;;;;10.13;92.89;102376.09;5013614;28;20030;-71
2021/10/16 00:02:59;;;;;;;15.05;5.28;;;;;;;10.17;92.58;102382.38;5013774;28;20037;-71
2021/10/16 00:05:24;;;;;;;19.25;6.38;;;;;;;10.17;92.16;102379.75;5006108;28;20044;-70
2021/10/16 00:07:49;;;;;;;16.27;5.78;;;;;;;10.17;93.62;102382.38;5013347;28;20161;-71
2021/10/16 00:10:15;;;;;;;14.20;5.65;;;;;;;10.16;92.64;102380.59;5012970;28;20025;-71
2021/10/16 00:12:40;;;;;;;16.08;5.72;;;;;;;10.17;93.07;102382.38;5013317;28;20524;-71
2021/10/16 00:15:06;;;;;;;16.35;5.53;;;;;;;10.17;93.52;102382.38;5013683;28;20034;-71
2021/10/16 00:17:31;;;;;;;17.80;5.05;;;;;;;10.16;93.74;102380.59;5012144;28;20026;-71
2021/10/16 00:19:57;;;;;;;18.85;5.63;;;;;;;10.17;94.71;102377.13;5012215;28;20068;-70
2021/10/16 00:22:22;;;;;;;12.75;4.95;;;;;;;10.18;94.74;102379.81;5012692;28;20505;-71
2021/10/16 00:24:48;;;;;;;18.75;5.05;;;;;;;10.19;95.41;102386.00;5013502;28;20499;-71
2021/10/16 00:27:15;;;;;;;16.13;5.68;;;;;;;10.15;94.19;102376.13;5012242;28;20129;-71
2021/10/16 00:29:41;;;;;;;16.45;4.95;;;;;;;10.17;94.78;102383.28;5013362;28;20032;-70
2021/10/16 00:32:06;;;;;;;16.65;4.97;;;;;;;10.19;95.75;102380.72;5013277;28;20085;-71
2021/10/16 00:34:31;;;;;;;18.15;4.65;;;;;;;10.19;93.86;102376.34;5012049;28;20053;-71
2021/10/16 00:36:57;;;;;;;16.38;5.00;;;;;;;10.19;92.54;102372.84;5012845;28;20069;-71
2021/10/16 00:39:22;;;;;;;17.35;4.50;;;;;;;10.19;91.55;102370.22;5012708;28;20389;-71
2021/10/16 00:41:47;;;;;;;16.67;4.45;;;;;;;10.16;92.48;102367.44;5014121;28;20037;-71
2021/10/16 00:44:18;;;;;;;10.35;3.97;;;;;;;10.16;92.85;102375.31;5013379;28;20022;-71
2021/10/16 00:46:44;;;;;;;21.10;4.28;;;;;;;10.16;93.14;102365.72;5012907;28;20018;-71
2021/10/16 00:49:10;;;;;;;15.60;4.03;;;;;;;10.13;91.36;102361.22;5011805;28;20045;-71
2021/10/16 00:51:37;;;;;;;16.77;3.92;;;;;;;10.16;91.01;102364.78;5011847;28;20038;-71
2021/10/16 00:54:03;;;;;;;13.13;3.78;;;;;;;10.18;91.12;102363.16;5018078;28;20037;-71
2021/10/16 00:56:29;;;;;;;21.08;4.25;;;;;;;10.18;90.59;102363.16;5012817;28;20480;-70
2021/10/16 00:58:56;;;;;;;17.23;5.70;;;;;;;10.16;91.40;102367.44;5013316;28;20029;-71
2021/10/16 01:01:21;;;;;;;15.05;3.45;;;;;;;10.13;92.51;102369.13;5012230;28;20030;-71
2021/10/16 01:03:47;;;;;;;24.40;4.35;;;;;;;10.10;92.80;102366.31;5012395;28;20028;-70
2021/10/16 01:06:12;;;;;;;14.48;3.00;;;;;;;10.09;92.38;102367.19;5012633;28;20489;-71
2021/10/16 01:08:38;;;;;;;11.88;3.50;;;;;;;10.11;91.63;102368.13;5011650;28;20030;-71
2021/10/16 01:11:06;;;;;;;17.05;3.95;;;;;;;10.12;92.83;102369.94;5012346;28;20034;-71
2021/10/16 01:13:31;;;;;;;10.25;3.65;;;;;;;10.13;93.14;102382.25;5012612;28;20505;-71
2021/10/16 01:15:58;;;;;;;17.15;3.22;;;;;;;10.08;87.86;102360.13;5013107;28;20029;-70
2021/10/16 01:18:24;;;;;;;16.75;3.40;;;;;;;10.08;89.03;102357.47;5012180;28;20034;-71
2021/10/16 01:21:02;;;;;;;16.75;2.78;;;;;;;10.11;88.82;102360.25;5012968;28;20022;-71
2021/10/16 01:23:28;;;;;;;18.27;3.10;;;;;;;10.10;88.27;102355.81;5016151;28;20037;-71
2021/10/16 01:25:54;;;;;;;12.18;2.78;;;;;;;10.10;87.41;102355.81;5022751;28;20029;-72
2021/10/16 01:28:20;;;;;;;14.45;2.92;;;;;;;10.11;85.12;102346.19;5012610;28;20037;-71
2021/10/16 01:30:45;;;;;;;12.98;2.50;;;;;;;10.10;86.87;102349.66;5012650;28;20030;-70
2021/10/16 01:33:11;;;;;;;18.33;3.30;;;;;;;10.08;87.47;102344.34;5012912;28;20061;-72
2021/10/16 01:35:36;;;;;;;14.95;4.40;;;;;;;10.10;89.91;102353.16;5011179;28;20025;-71
2021/10/16 01:38:01;;;;;;;10.98;3.53;;;;;;;10.11;90.27;102351.47;5012561;28;20033;-71
2021/10/16 01:40:27;;;;;;;14.55;3.03;;;;;;;10.08;87.84;102349.59;5012405;28;20160;-71
2021/10/16 01:42:53;;;;;;;17.67;3.63;;;;;;;10.07;89.22;102350.41;5012709;28;20057;-71
2021/10/16 01:45:19;;;;;;;14.65;4.13;;;;;;;10.07;88.02;102350.41;5011342;28;20378;-71
2021/10/16 01:47:54;;;;;;;18.45;3.05;;;;;;;10.07;86.05;102344.28;5012849;28;20021;-71
2021/10/16 01:50:21;;;;;;;13.70;3.25;;;;;;;10.10;87.60;102344.41;5011967;28;20382;-70
2021/10/16 01:52:47;;;;;;;21.13;3.40;;;;;;;10.10;87.56;102344.41;5016860;28;20149;-73
2021/10/16 01:55:13;;;;;;;13.80;3.03;;;;;;;10.11;86.86;102338.31;5012519;28;20171;-72
2021/10/16 01:57:38;;;;;;;11.82;2.50;;;;;;;10.10;86.33;102334.75;5013271;28;20147;-73
2021/10/16 02:00:06;;;;;;;21.30;3.67;;;;;;;10.09;87.81;102335.63;5012193;28;20489;-73
2021/10/16 02:02:33;;;;;;;14.10;2.97;;;;;;;10.10;87.09;102334.75;5013775;28;20029;-73
2021/10/16 02:04:58;;;;;;;7.03;2.75;;;;;;;10.09;87.03;102338.25;5015318;28;20037;-73
2021/10/16 02:07:24;;;;;;;14.05;3.83;;;;;;;10.08;86.93;102331.19;5016367;28;20476;-73
2021/10/16 02:09:49;;;;;;;18.25;4.15;;;;;;;10.08;87.07;102333.81;5016663;28;20025;-73
2021/10/16 02:12:14;;;;;;;20.98;3.83;;;;;;;10.06;83.82;102324.94;5016218;28;20026;-73
2021/10/16 02:14:39;;;;;;;18.65;3.63;;;;;;;10.09;84.80;102321.56;5015265;28;20132;-73
2021/10/16 02:17:05;;;;;;;14.70;3.22;;;;;;;10.10;85.17;102324.25;5015203;28;20465;-73
2021/10/16 02:19:30;;;;;;;21.33;3.30;;;;;;;10.10;85.27;102329.50;5016055;28;20116;-74
2021/10/16 02:21:55;;;;;;;12.13;2.90;;;;;;;10.11;85.70;102325.16;5016931;28;20533;-74
2021/10/16 02:24:21;;;;;;;12.73;3.45;;;;;;;10.11;85.27;102326.03;5015975;28;20121;-73
2021/10/16 02:26:46;;;;;;;18.30;4.18;;;;;;;10.10;85.52;102324.25;5016253;28;20429;-73
2021/10/16 02:29:11;;;;;;;13.73;3.42;;;;;;;10.09;85.20;102322.47;5016394;28;20065;-74
2021/10/16 02:31:37;;;;;;;14.48;3.10;;;;;;;10.10;85.61;102326.88;5016009;28;20028;-73
2021/10/16 02:34:02;;;;;;;9.48;2.88;;;;;;;10.10;84.57;102324.25;5016712;28;20064;-73
2021/10/16 02:36:28;;;;;;;19.77;3.17;;;;;;;10.09;85.08;102327.72;5017248;28;20481;-73
2021/10/16 02:38:53;;;;;;;17.15;3.35;;;;;;;10.10;85.15;102324.25;5014714;28;20057;-73
2021/10/16 02:41:19;;;;;;;19.23;3.58;;;;;;;10.09;83.81;102317.22;5015747;28;20025;-73
2021/10/16 02:43:44;;;;;;;15.95;3.20;;;;;;;10.12;84.53;102322.59;5015873;28;20036;-73
2021/10/16 02:46:09;;;;;;;16.48;3.25;;;;;;;10.13;83.18;102319.13;5015723;28;20474;-73
2021/10/16 02:48:35;;;;;;;10.20;3.22;;;;;;;10.12;83.11;102327.84;5015762;28;20034;-73
2021/10/16 02:51:01;;;;;;;14.98;3.40;;;;;;;10.13;84.38;102329.66;5013624;28;20026;-73
2021/10/16 02:53:26;;;;;;;14.18;3.25;;;;;;;10.15;84.66;102331.44;5019613;28;20087;-73
2021/10/16 02:55:51;;;;;;;13.70;3.50;;;;;;;10.15;83.41;102328.78;5015586;28;20021;-73
2021/10/16 02:58:17;;;;;;;9.70;3.30;;;;;;;10.13;83.43;102324.41;5014022;28;20529;-73
2021/10/16 03:00:42;;;;;;;11.88;3.00;;;;;;;10.13;83.71;102323.47;5015316;28;20021;-73
2021/10/16 03:03:07;;;;;;;20.52;3.35;;;;;;;10.11;84.38;102333.94;5014755;28;20029;-74
2021/10/16 03:05:33;;;;;;;17.75;3.05;;;;;;;10.10;83.46;102331.25;5015168;28;20026;-73
2021/10/16 03:07:58;;;;;;;15.70;3.58;;;;;;;10.13;84.42;102340.19;5014218;28;20113;-73
2021/10/16 03:10:23;;;;;;;16.88;3.17;;;;;;;10.14;83.92;102341.06;5014674;28;20029;-73
2021/10/16 03:12:49;;;;;;;9.60;3.13;;;;;;;10.12;82.76;102326.97;5014490;28;20034;-73
2021/10/16 03:15:14;;;;;;;17.65;4.45;;;;;;;10.10;83.25;102331.25;5014305;28;20029;-73
2021/10/16 03:17:40;;;;;;;12.90;2.85;;;;;;;10.08;83.47;102330.31;5013310;28;20990;-73
2021/10/16 03:20:05;;;;;;;9.10;3.15;;;;;;;10.08;82.82;102330.31;5015216;28;20026;-73
2021/10/16 03:22:31;;;;;;;16.15;3.60;;;;;;;10.08;83.73;102338.19;5014955;28;20026;-73
2021/10/16 03:24:56;;;;;;;19.77;2.72;;;;;;;10.07;82.46;102333.75;5014550;28;20096;-73
2021/10/16 03:27:21;;;;;;;14.82;3.25;;;;;;;10.05;82.26;102331.06;5014698;28;20038;-73
2021/10/16 03:29:47;;;;;;;21.25;3.38;;;;;;;10.04;83.14;102329.25;5015322;28;20033;-73
2021/10/16 03:32:12;;;;;;;14.00;2.97;;;;;;;10.02;83.34;102330.91;5013428;28;20030;-73
2021/10/16 03:34:37;;;;;;;16.65;3.75;;;;;;;9.98;82.81;102323.72;5013927;28;20041;-74
2021/10/16 03:37:03;;;;;;;13.48;3.17;;;;;;;9.99;85.10;102324.63;5014639;28;20102;-73
2021/10/16 03:39:28;;;;;;;21.83;3.20;;;;;;;9.95;85.64;102329.75;5015210;28;20458;-73
2021/10/16 03:41:53;;;;;;;15.40;3.67;;;;;;;9.94;84.57;102321.78;5013647;28;20446;-73
2021/10/16 03:44:19;;;;;;;21.13;2.70;;;;;;;9.91;84.81;102322.56;5014859;28;20113;-73
2021/10/16 03:46:44;;;;;;;19.60;3.20;;;;;;;9.87;85.50;102319.75;5014317;28;20037;-73
2021/10/16 03:49:09;;;;;;;12.18;2.65;;;;;;;9.83;86.09;102325.69;5012977;28;20129;-73
2021/10/16 03:51:35;;;;;;;16.08;3.33;;;;;;;9.76;86.85;102328.06;5012678;28;20129;-73
2021/10/16 03:54:03;;;;;;;11.82;2.92;;;;;;;9.70;86.39;102322.53;5018574;28;20037;-72
2021/10/16 03:56:30;;;;;;;13.60;2.97;;;;;;;9.64;87.14;102318.75;5015347;28;20036;-73
2021/10/16 03:58:56;;;;;;;14.55;2.72;;;;;;;9.56;87.50;102318.38;5014913;28;20059;-72
2021/10/16 04:01:21;;;;;;;8.77;3.00;;;;;;;9.49;88.99;102332.97;5011717;28;20033;-73
2021/10/16 04:03:46;;;;;;;16.70;2.97;;;;;;;9.39;89.15;102326.41;5013970;28;20041;-73
2021/10/16 04:06:13;;;;;;;12.93;3.08;;;;;;;9.30;89.38;102333.88;5013010;28;20155;-73
2021/10/16 04:08:39;;;;;;;15.73;3.10;;;;;;;9.21;90.50;102330.81;5014540;28;20041;-72
2021/10/16 04:11:04;;;;;;;12.75;3.28;;;;;;;9.09;91.56;102326.81;5014111;28;20108;-73
2021/10/16 04:13:29;;;;;;;12.10;3.08;;;;;;;9.02;92.32;102327.38;5013339;28;20032;-73
2021/10/16 04:15:55;;;;;;;11.90;2.83;;;;;;;8.89;92.98;102332.84;5012889;28;20026;-73
2021/10/16 04:18:20;;;;;;;11.60;2.65;;;;;;;8.79;93.40;102336.78;5013443;28;20424;-73
2021/10/16 04:20:45;;;;;;;15.48;3.22;;;;;;;8.70;93.78;102337.22;5014137;28;20049;-73
2021/10/16 04:23:11;;;;;;;11.38;3.13;;;;;;;8.69;93.79;102330.16;5015243;28;20108;-72
2021/10/16 04:25:36;;;;;;;16.00;4.25;;;;;;;8.63;93.88;102329.88;5024888;28;20052;-73
2021/10/16 04:28:01;;;;;;;11.07;3.35;;;;;;;8.63;95.46;102335.13;5013166;28;20030;-73
2021/10/16 04:30:27;;;;;;;12.68;2.92;;;;;;;8.54;94.90;102339.94;5013640;28;20056;-73
2021/10/16 04:32:52;;;;;;;10.60;4.25;;;;;;;8.51;95.32;102340.66;5013301;28;20029;-74
2021/10/16 04:35:18;;;;;;;14.60;3.08;;;;;;;8.50;94.79;102337.97;5013668;28;20025;-73
2021/10/16 04:37:43;;;;;;;11.10;2.95;;;;;;;8.54;95.12;102345.16;5013306;28;20029;-73
2021/10/16 04:40:13;;;;;;;11.85;3.20;;;;;;;8.53;94.28;102343.38;5012199;28;20027;-73
2021/10/16 04:42:39;;;;;;;20.00;4.57;;;;;;;8.55;93.69;102341.72;5013710;28;20026;-74
2021/10/16 04:45:06;;;;;;;12.10;3.58;;;;;;;8.58;93.95;102341.88;5011439;28;20025;-73
2021/10/16 04:47:32;;;;;;;16.85;3.45;;;;;;;8.60;93.69;102340.25;5013009;28;20041;-74
2021/10/16 04:49:58;;;;;;;11.50;2.88;;;;;;;8.58;94.20;102344.50;5012845;28;20065;-74
2021/10/16 04:52:23;;;;;;;15.07;3.20;;;;;;;8.54;94.43;102342.53;5015764;28;20061;-73
2021/10/16 04:54:48;;;;;;;17.23;3.13;;;;;;;8.51;94.22;102345.03;5016836;28;20022;-73
2021/10/16 04:57:14;;;;;;;14.98;3.05;;;;;;;8.47;94.37;102343.09;5011659;28;20037;-73
2021/10/16 04:59:39;;;;;;;16.70;3.05;;;;;;;8.45;94.60;102343.00;5013088;28;20026;-72
2021/10/16 05:02:04;;;;;;;9.68;3.33;;;;;;;8.43;95.04;102339.38;5011789;28;20367;-73
2021/10/16 05:04:31;;;;;;;10.95;2.90;;;;;;;8.40;95.50;102344.47;5012295;28;20097;-73
2021/10/16 05:06:57;;;;;;;18.33;3.45;;;;;;;8.42;95.91;102345.41;5013269;28;20030;-73
2021/10/16 05:09:22;;;;;;;15.25;3.08;;;;;;;8.44;97.27;102346.41;5012713;28;20033;-74
2021/10/16 05:11:47;;;;;;;10.00;3.90;;;;;;;8.43;96.37;102341.97;5012824;28;20057;-73
2021/10/16 05:14:13;;;;;;;14.40;4.05;;;;;;;8.49;96.41;102338.78;5012822;28;20398;-73
2021/10/16 05:16:38;;;;;;;15.05;2.97;;;;;;;8.51;97.49;102334.53;5013458;28;20022;-74
2021/10/16 05:19:03;;;;;;;18.50;3.85;;;;;;;8.55;97.31;102331.25;5013303;28;20037;-74
2021/10/16 05:21:29;;;;;;;13.45;3.70;;;;;;;8.56;96.83;102333.94;5013509;28;20100;-74
2021/10/16 05:23:54;;;;;;;22.90;3.78;;;;;;;8.59;96.19;102333.19;5013045;28;20053;-74
2021/10/16 05:26:20;;;;;;;14.93;2.60;;;;;;;8.61;96.20;102331.53;5010899;28;20026;-73
2021/10/16 05:28:45;;;;;;;17.88;3.00;;;;;;;8.70;96.60;102331.09;5010411;28;20454;-73
2021/10/16 05:31:10;;;;;;;19.60;4.13;;;;;;;8.69;96.59;102335.41;5008265;28;20034;-73
2021/10/16 05:33:35;;;;;;;16.50;3.00;;;;;;;8.73;96.36;102332.09;5011895;28;20037;-74
2021/10/16 05:36:01;;;;;;;14.02;3.15;;;;;;;8.77;97.73;102328.81;5011863;28;20059;-74
2021/10/16 05:38:26;;;;;;;22.70;3.15;;;;;;;8.76;96.67;102332.28;5015923;28;20099;-73
2021/10/16 05:40:52;;;;;;;14.63;3.10;;;;;;;8.80;96.86;102328.06;5016490;28;20036;-74
2021/10/16 05:43:17;;;;;;;17.48;3.78;;;;;;;8.82;97.00;102336.91;5016547;28;20022;-73
2021/10/16 05:45:42;;;;;;;19.95;3.60;;;;;;;8.82;96.85;102336.91;5016460;28;20052;-74
2021/10/16 05:48:08;;;;;;;14.75;4.10;;;;;;;8.85;96.17;102339.69;5017068;28;20512;-73
2021/10/16 05:50:33;;;;;;;14.90;3.17;;;;;;;8.84;95.90;102329.09;5014975;28;20079;-74
2021/10/16 05:52:59;;;;;;;16.80;3.22;;;;;;;8.84;95.30;102334.34;5015451;28;20462;-73
2021/10/16 05:55:24;;;;;;;14.15;3.20;;;;;;;8.84;95.69;102334.34;5015841;28;20028;-70
2021/10/16 05:57:50;;;;;;;13.27;2.80;;;;;;;8.81;95.98;102334.22;5015675;28;20029;-74
2021/10/16 06:00:16;;;;;;;20.35;3.63;;;;;;;8.80;94.95;102332.41;5014739;28;20420;-73
2021/10/16 06:02:41;;;;;;;9.55;2.83;;;;;;;8.80;95.15;102333.31;5012113;28;20030;-73
2021/10/16 06:05:07;;;;;;;14.00;3.13;;;;;;;8.80;95.81;102332.41;5016998;28;20026;-74
2021/10/16 06:07:32;;;;;;;17.02;3.95;;;;;;;8.80;95.48;102335.94;5016501;28;20029;-73
2021/10/16 06:09:58;;;;;;;14.98;2.75;;;;;;;8.80;94.19;102327.16;5015839;28;20103;-74
2021/10/16 06:12:23;;;;;;;17.23;3.67;;;;;;;8.82;95.65;102333.38;5017048;28;20068;-74
2021/10/16 06:14:49;;;;;;;9.00;2.75;;;;;;;8.80;95.25;102328.06;5020329;28;20041;-74
2021/10/16 06:17:14;;;;;;;10.88;2.95;;;;;;;8.81;95.46;102323.72;5012959;28;20175;-74
2021/10/16 06:19:39;;;;;;;13.88;3.33;;;;;;;8.81;96.64;102334.22;5018875;28;20060;-73
2021/10/16 06:22:05;;;;;;;13.30;3.85;;;;;;;8.81;95.00;102331.59;5016576;28;20044;-73
2021/10/16 06:24:30;;;;;;;9.77;2.53;;;;;;;8.83;94.70;102324.69;5014411;28;20058;-73
2021/10/16 06:27:02;;;;;;;12.45;2.70;;;;;;;8.88;93.97;102331.06;5024840;28;20025;-72
2021/10/16 06:29:28;;;;;;;14.93;3.03;;;;;;;8.92;95.05;102327.75;5011314;28;20485;-74
2021/10/16 06:31:53;;;;;;;10.90;2.78;;;;;;;8.95;93.98;102327.88;5015495;28;20030;-74
2021/10/16 06:34:18;;;;;;;10.35;2.95;;;;;;;8.99;94.37;102335.06;5014162;28;20030;-73
2021/10/16 06:36:44;;;;;;;15.48;3.45;;;;;;;9.04;95.08;102336.19;5013782;28;20033;-73
2021/10/16 06:39:09;;;;;;;13.57;3.22;;;;;;;9.08;94.57;102329.38;5011874;28;20033;-74
2021/10/16 06:41:35;;;;;;;17.67;3.22;;;;;;;9.12;94.16;102336.56;5014528;28;20096;-74
2021/10/16 06:44:01;;;;;;;12.98;2.95;;;;;;;9.15;94.67;102335.81;5016464;28;20101;-74
2021/10/16 06:46:26;;;;;;;14.38;3.03;;;;;;;9.18;93.85;102325.44;5016710;28;20470;-73
2021/10/16 06:48:51;;;;;;;14.45;3.75;;;;;;;9.21;94.13;102336.06;5016047;28;20100;-74
2021/10/16 06:51:17;;;;;;;11.68;3.13;;;;;;;9.25;93.68;102332.75;5017479;28;20152;-74
2021/10/16 06:53:42;;;;;;;11.52;2.88;;;;;;;9.29;92.76;102334.69;5022688;28;20041;-74
2021/10/16 06:56:07;;;;;;;13.63;3.05;;;;;;;9.33;92.65;102336.63;5016134;28;20129;-74
2021/10/16 06:58:33;;;;;;;13.88;2.97;;;;;;;9.37;93.07;102342.94;5016092;28;20108;-73
2021/10/16 07:00:58;;;;;;;15.20;3.65;;;;;;;9.40;93.35;102338.75;5015564;28;20018;-74
2021/10/16 07:03:23;;;;;;;21.83;3.92;;;;;;;9.48;93.45;102339.06;5014842;28;20034;-74
2021/10/16 07:05:49;;;;;;;15.80;3.83;;;;;;;9.51;92.38;102336.59;5015518;28;20085;-74
2021/10/16 07:08:14;;;;;;;16.10;3.03;;;;;;;9.55;92.36;102338.53;5014603;28;20040;-73
2021/10/16 07:10:41;;;;;;;15.23;3.35;;;;;;;9.61;93.35;102335.28;5009329;28;20367;-74
2021/10/16 07:13:08;;;;;;;15.55;3.13;;;;;;;9.65;92.03;102339.84;5008737;28;20057;-74
2021/10/16 07:15:34;;;;;;;15.82;3.22;;;;;;;9.71;92.28;102342.75;5013212;28;20065;-74
2021/10/16 07:17:59;;;;;;;16.42;3.40;;;;;;;9.77;91.97;102334.22;5013312;28;20049;-70
2021/10/16 07:20:24;;;;;;;14.23;3.28;;;;;;;9.82;92.13;102337.03;5018523;28;20473;-70
2021/10/16 07:22:50;;;;;;;11.55;2.70;;;;;;;9.88;92.19;102342.59;5011682;28;20041;-69
2021/10/16 07:25:15;;;;;;;11.40;3.10;;;;;;;9.91;91.40;102342.72;5008499;28;20461;-71
2021/10/16 07:27:41;;;;;;;16.90;3.17;;;;;;;9.94;91.83;102342.84;5006461;28;20967;-70
2021/10/16 07:30:08;;;;;;;11.85;3.22;;;;;;;9.99;91.41;102346.56;5009764;28;20453;-68
2021/10/16 07:32:34;;;;;;;16.92;2.97;;;;;;;10.02;91.83;102349.31;5006436;28;20398;-72
2021/10/16 07:34:59;;;;;;;17.45;3.55;;;;;;;10.06;91.05;102348.63;5007216;28;20036;-71
2021/10/16 07:37:25;;;;;;;16.58;3.88;;;;;;;10.09;91.72;102354.03;5010026;28;20034;-71
2021/10/16 07:39:50;;;;;;;24.42;4.35;;;;;;;10.11;91.38;102357.59;5003761;28;20122;-71
2021/10/16 07:42:16;;;;;;;17.85;3.88;;;;;;;10.13;91.29;102355.03;5010462;28;20133;-71
2021/10/16 07:44:41;;;;;;;12.15;3.42;;;;;;;10.15;91.13;102355.09;5012396;28;20021;-71
2021/10/16 07:47:06;;;;;;;13.02;3.40;;;;;;;10.16;92.15;102360.47;5011561;28;20100;-71
2021/10/16 07:49:32;;;;;;;22.65;3.47;;;;;;;10.18;92.34;102358.78;5013414;28;20038;-72
2021/10/16 07:51:57;;;;;;;16.23;4.00;;;;;;;10.18;91.91;102364.03;5013906;28;20057;-70
2021/10/16 07:54:23;;;;;;;12.18;3.33;;;;;;;10.20;91.68;102362.38;5031632;28;20534;-74
2021/10/16 07:56:48;;;;;;;18.30;3.30;;;;;;;10.23;91.52;102357.25;5007742;28;20481;-74
2021/10/16 07:59:14;;;;;;;18.88;3.92;;;;;;;10.28;91.88;102374.13;5010400;28;20036;-75
2021/10/16 08:01:39;;;;;;;15.18;4.28;;;;;;;10.29;91.91;102367.13;5020755;28;20025;-73
2021/10/16 08:04:05;;;;;;;15.95;3.88;;;;;;;10.29;91.23;102367.13;5008757;28;20033;-74
2021/10/16 08:06:30;;;;;;;18.25;3.20;;;;;;;10.32;92.11;102372.50;5013764;28;20537;-73
2021/10/16 08:08:55;;;;;;;14.75;3.30;;;;;;;10.33;93.29;102378.69;5013077;28;20056;-74
2021/10/16 08:11:21;;;;;;;15.77;3.10;;;;;;;10.33;91.88;102368.16;5013709;28;20030;-75
2021/10/16 08:13:47;;;;;;;18.83;3.58;;;;;;;10.34;91.37;102368.22;5012145;28;20035;-70
2021/10/16 08:16:12;;;;;;;14.50;3.60;;;;;;;10.37;90.87;102371.00;5013150;28;20388;-73
2021/10/16 08:18:38;;;;;;;14.95;3.47;;;;;;;10.38;89.95;102362.28;5016775;28;20029;-73
2021/10/16 08:21:03;;;;;;;22.48;4.00;;;;;;;10.42;89.85;102363.31;5032855;28;21489;-73
2021/10/16 08:23:28;;;;;;;16.25;3.83;;;;;;;10.41;89.75;102362.41;5013650;28;20038;-73
2021/10/16 08:25:54;;;;;;;16.35;3.90;;;;;;;10.44;89.65;102366.91;5031548;28;20040;-73
2021/10/16 08:28:20;;;;;;;16.67;3.55;;;;;;;10.45;89.58;102364.31;5008877;28;20026;-72
2021/10/16 08:30:50;;;;;;;13.93;4.13;;;;;;;10.46;89.75;102366.13;5013932;28;20029;-73
2021/10/16 08:33:19;;;;;;;13.57;4.07;;;;;;;10.52;89.82;102369.84;5012700;28;20036;-72
2021/10/16 08:35:44;;;;;;;19.75;3.92;;;;;;;10.55;90.07;102369.97;5014343;28;20026;-73
2021/10/16 08:38:10;;;;;;;16.60;4.15;;;;;;;10.59;89.61;102371.91;5013486;28;20022;-73
2021/10/16 08:40:37;;;;;;;14.38;2.95;;;;;;;10.63;89.66;102377.38;5014122;28;20128;-74
2021/10/16 08:43:03;;;;;;;28.30;4.85;;;;;;;10.68;88.64;102374.91;5013707;28;20033;-75
2021/10/16 08:45:28;;;;;;;19.23;4.07;;;;;;;10.75;88.59;102376.94;5013789;28;20029;-75
2021/10/16 08:47:54;;;;;;;11.63;3.53;;;;;;;10.80;88.11;102372.78;5013137;28;20536;-73
2021/10/16 08:50:20;;;;;;;23.52;4.22;;;;;;;10.85;87.80;102380.88;5013977;28;20450;-73
2021/10/16 08:52:45;;;;;;;14.68;3.65;;;;;;;10.90;87.93;102381.03;5015765;28;20034;-73
2021/10/16 08:55:12;;;;;;;11.45;2.88;;;;;;;10.98;88.21;102384.00;5011882;28;20125;-74
2021/10/16 08:57:38;;;;;;;18.33;3.28;;;;;;;11.03;87.99;102374.50;5013581;28;20069;-74
2021/10/16 09:00:59;;;;;;;14.38;3.65;;;;;;;11.09;87.03;102383.56;5013848;28;20049;-74
2021/10/16 09:03:32;;;;;;;25.40;3.60;;;;;;;11.20;86.07;102383.09;5007861;28;20034;-72
2021/10/16 09:05:58;;;;;;;20.00;4.82;;;;;;;11.28;85.67;102386.91;5012127;28;20367;-73
2021/10/16 09:08:34;;;;;;;17.85;3.50;;;;;;;11.37;85.68;102392.53;5013436;28;20053;-73
2021/10/16 09:11:14;;;;;;;12.35;3.00;;;;;;;11.44;84.38;102384.03;5012653;28;20485;-72
2021/10/16 09:13:42;;;;;;;9.27;2.80;;;;;;;11.48;84.46;102385.94;5002731;28;20029;-73
2021/10/16 09:16:21;;;;;;;15.95;3.78;;;;;;;11.54;83.81;102381.75;5009442;28;20478;-73
2021/10/16 09:18:51;;;;;;;16.73;3.63;;;;;;;11.61;82.41;102370.56;5013258;28;20040;-72
2021/10/16 09:21:17;;;;;;;14.95;2.97;;;;;;;11.66;82.33;102379.56;5014869;28;20044;-73
2021/10/16 09:23:43;;;;;;;17.02;2.75;;;;;;;11.67;82.43;102375.19;5015857;28;20046;-72
2021/10/16 09:26:08;;;;;;;18.67;3.60;;;;;;;11.68;81.42;102369.97;5015566;28;20029;-73
2021/10/16 09:28:36;;;;;;;13.57;3.33;;;;;;;11.68;81.01;102372.59;5015331;28;20037;-73
2021/10/16 09:31:09;;;;;;;11.40;2.35;;;;;;;11.74;81.60;102367.53;5016129;28;20084;-72
2021/10/16 09:33:46;;;;;;;;;;;;;;;11.78;81.82;102365.94;5016520;28;20022;-72
2021/10/16 09:36:23;;;;;;;19.92;3.67;;;;;;;11.78;81.27;102361.53;5017490;28;19913;-73
2021/10/16 09:38:49;;;;;;;11.95;2.60;;;;;;;11.82;80.71;102367.81;5016675;28;20092;-73
2021/10/16 09:41:33;;;;;;;17.75;3.35;;;;;;;11.81;79.62;102363.38;5016091;28;20022;-73
2021/10/16 09:43:59;;;;;;;17.20;3.50;;;;;;;11.85;79.82;102357.38;5016232;28;20030;-73
2021/10/16 09:46:25;;;;;;;17.50;3.03;;;;;;;11.92;79.40;102369.06;5016680;28;20455;-72
2021/10/16 09:48:52;;;;;;;25.45;3.70;;;;;;;11.90;79.47;102368.13;5017109;28;20033;-72
2021/10/16 09:51:19;;;;;;;17.10;3.40;;;;;;;11.91;78.90;102365.53;5016791;28;20065;-73
2021/10/16 09:53:46;;;;;;;15.20;3.25;;;;;;;11.92;78.19;102366.41;5018930;28;20034;-69
2021/10/16 09:56:12;;;;;;;14.27;3.15;;;;;;;11.92;78.68;102367.31;5018730;28;20033;-69
2021/10/16 09:58:38;;;;;;;18.05;2.95;;;;;;;11.91;77.80;102369.88;5014874;28;20029;-71
2021/10/16 10:01:06;;;;;;;17.92;3.22;;;;;;;11.93;77.29;102376.13;5014929;28;20032;-74
2021/10/16 10:03:34;;;;;;;16.17;3.42;;;;;;;11.99;77.65;102373.72;5016366;28;20108;-72
2021/10/16 10:05:59;;;;;;;10.18;2.70;;;;;;;12.02;77.77;102373.84;5016171;28;20519;-73
2021/10/16 10:08:25;;;;;;;12.00;3.05;;;;;;;12.09;77.49;102375.84;5013294;28;20069;-73
2021/10/16 10:10:51;;;;;;;13.30;3.10;;;;;;;12.12;77.21;102383.88;5014990;28;20057;-72
2021/10/16 10:13:17;;;;;;;17.80;2.97;;;;;;;12.19;77.24;102381.47;5013029;28;20037;-73
2021/10/16 10:15:43;;;;;;;17.60;3.53;;;;;;;12.26;76.36;102372.91;5017862;28;20030;-72
2021/10/16 10:20:57;;;;;;;12.63;2.95;;;;;;;12.36;76.97;102369.75;5013536;28;20053;-69
2021/10/16 10:23:24;;;;;;;13.88;3.85;;;;;;;12.46;76.22;102361.25;5015346;28;20029;-70
2021/10/16 10:26:22;;;;;;;13.30;3.13;;;;;;;12.63;75.94;102353.91;5015329;28;20046;-69
2021/10/16 10:28:52;;;;;;;17.95;3.45;;;;;;;12.82;74.64;102349.22;5014718;28;20038;-72
2021/10/16 10:31:55;;;;;;;18.15;3.75;;;;;;;13.03;74.43;102348.97;5012076;28;20560;-72
2021/10/16 10:34:24;;;;;;;23.25;3.70;;;;;;;13.20;72.97;102344.22;5012662;28;20026;-73
2021/10/16 10:36:53;;;;;;;16.10;3.60;;;;;;;13.27;72.76;102353.22;5014269;28;20069;-73
2021/10/16 10:39:32;;;;;;;18.73;3.80;;;;;;;13.42;72.52;102350.16;5014695;28;20029;-72
2021/10/16 10:41:58;;;;;;;19.25;4.32;;;;;;;13.50;73.01;102348.63;5011023;28;20038;-72
2021/10/16 10:44:59;;;;;;;15.15;3.25;;;;;;;13.63;72.00;102341.94;5015357;28;20088;-72
2021/10/16 10:47:30;;;;;;;23.83;2.90;;;;;;;13.74;70.78;102334.28;5002144;28;20494;-71
2021/10/16 10:50:00;;;;;;;12.15;2.75;;;;;;;13.97;70.25;102340.22;5013671;28;20049;-72
2021/10/16 10:52:28;;;;;;;16.42;3.33;;;;;;;14.09;68.44;102331.69;5016591;28;20096;-73
2021/10/16 10:55:08;;;;;;;12.00;3.22;;;;;;;14.22;68.47;102332.94;5033588;28;20021;-73
2021/10/16 10:57:47;;;;;;;12.07;2.95;;;;;;;14.37;68.25;102328.00;5034935;28;20057;-73
2021/10/16 11:00:15;;;;;;;10.38;2.85;;;;;;;14.63;67.49;102330.44;5033644;28;20033;-74
2021/10/16 11:02:41;;;;;;;8.57;3.17;;;;;;;14.72;65.97;102327.09;5034211;28;20030;-72
2021/10/16 11:05:31;;;;;;;16.25;3.10;;;;;;;14.63;65.37;102325.13;5028393;28;20029;-73
2021/10/16 11:08:04;;;;;;;13.48;3.13;;;;;;;14.26;65.77;102324.22;5005873;28;20030;-72
2021/10/16 11:10:29;;;;;;;17.17;3.57;;;;;;;14.20;67.30;102327.56;5015545;28;20037;-73
2021/10/16 11:12:55;;;;;;;12.32;3.17;;;;;;;14.17;67.78;102330.16;5014205;28;20045;-72
2021/10/16 11:15:21;;;;;;;19.77;3.33;;;;;;;14.29;67.40;102329.56;5015483;28;20083;-74
2021/10/16 11:17:48;;;;;;;11.65;3.28;;;;;;;14.32;65.92;102325.25;5014950;28;20076;-73
2021/10/16 11:20:17;;;;;;;9.95;2.80;;;;;;;14.28;66.02;102322.47;5015433;28;20028;-73
2021/10/16 11:22:52;;;;;;;14.48;2.67;;;;;;;14.16;65.99;102321.31;5014923;28;20026;-72